Time;durP1;ratioP1;P1;durP2;ratioP2;P2;SDS_P1;SDS_P2;PMS_P1;PMS_P2;Temp;Humidity;BMP_temperature;BMP_pressure;BME280_temperature;BME280_humidity;BME280_pressure;Samples;Min_cycle;Max_cycle;Signal;HPM_P1;HPM_P2
2023/03/16 00:00:00;;;;;;;;;;;;;;;;;;6198360;23;19920;-89
2023/03/16 00:02:26;;;;;;;;;;;;;;;;;;6203202;23;19926;-89
2023/03/16 00:04:53;;;;;;;;;;;;;;;;;;6201353;23;19920;-89
2023/03/16 00:07:20;;;;;;;;;;;;;;;;;;6180884;23;20282;-89
2023/03/16 00:09:46;;;;;;;;;;;;;;;;;;6203676;23;19927;-90
2023/03/16 00:12:14;;;;;;;;;;;;;;;;;;6177746;23;20358;-90
2023/03/16 00:14:40;;;;;;;;;;;;;;;;;;6177883;23;19935;-90
2023/03/16 00:17:06;;;;;;;;;;;;;;;;;;6179756;23;19919;-90
2023/03/16 00:19:34;;;;;;;;;;;;;;;;;;6204165;23;19974;-90
2023/03/16 00:21:59;;;;;;;;;;;;;;;;;;6198897;23;20351;-90
2023/03/16 00:24:25;;;;;;;;;;;;;;;;;;6179314;23;19947;-90
2023/03/16 00:26:53;;;;;;;;;;;;;;;;;;6202427;23;20251;-90
2023/03/16 00:29:21;;;;;;;;;;;;;;;;;;6205446;23;20265;-90
2023/03/16 00:31:47;;;;;;;;;;;;;;;;;;6202644;23;19946;-90
2023/03/16 00:34:14;;;;;;;;;;;;;;;;;;6180350;23;20321;-89
2023/03/16 00:36:41;;;;;;;;;;;;;;;;;;6175879;23;19916;-88
2023/03/16 00:39:07;;;;;;;;;;;;;;;;;;6180497;23;20357;-89
2023/03/16 00:41:36;;;;;;;;;;;;;;;;;;6205614;23;19920;-89
2023/03/16 00:44:02;;;;;;;;;;;;;;;;;;6206502;23;19958;-89
2023/03/16 00:46:28;;;;;;;;;;;;;;;;;;6181504;23;19920;-90
2023/03/16 00:48:54;;;;;;;;;;;;;;;;;;6175704;23;19922;-90
2023/03/16 00:51:21;;;;;;;;;;;;;;;;;;6205206;23;19920;-90
2023/03/16 00:53:47;;;;;;;;;;;;;;;;;;6177034;23;19924;-89
2023/03/16 00:56:13;;;;;;;;;;;;;;;;;;6180153;23;20262;-89
2023/03/16 00:58:41;;;;;;;;;;;;;;;;;;6178923;23;19920;-91
2023/03/16 01:01:07;;;;;;;;;;;;;;;;;;6205537;23;19934;-90
2023/03/16 01:03:33;;;;;;;;;;;;;;;;;;6206216;23;19990;-89
2023/03/16 01:05:59;;;;;;;;;;;;;;;;;;6205305;23;19942;-90
2023/03/16 01:08:26;;;;;;;;;;;;;;;;;;6178616;23;19926;-90
2023/03/16 01:10:52;;;;;;;;;;;;;;;;;;6202349;23;19951;-90
2023/03/16 01:13:18;;;;;;;;;;;;;;;;;;6205549;23;19924;-90
2023/03/16 01:15:44;;;;;;;;;;;;;;;;;;6177364;23;19919;-90
2023/03/16 01:18:12;;;;;;;;;;;;;;;;;;6179532;23;19920;-90
2023/03/16 01:20:38;;;;;;;;;;;;;;;;;;6176435;23;19924;-90
2023/03/16 01:23:04;;;;;;;;;;;;;;;;;;6180088;23;19920;-90
2023/03/16 01:25:31;;;;;;;;;;;;;;;;;;6179752;23;19948;-90
2023/03/16 01:27:57;;;;;;;;;;;;;;;;;;6175950;23;20031;-90
2023/03/16 01:30:23;;;;;;;;;;;;;;;;;;6178536;23;20344;-90
2023/03/16 01:32:49;;;;;;;;;;;;;;;;;;6177118;23;20251;-90
2023/03/16 01:35:15;;;;;;;;;;;;;;;;;;6178168;23;19951;-90
2023/03/16 01:37:41;;;;;;;;;;;;;;;;;;6176794;23;19919;-90
2023/03/16 01:40:07;;;;;;;;;;;;;;;;;;6178162;23;19923;-89
2023/03/16 01:42:33;;;;;;;;;;;;;;;;;;6177428;23;19954;-89
2023/03/16 01:45:00;;;;;;;;;;;;;;;;;;6176834;23;19924;-90
2023/03/16 01:47:26;;;;;;;;;;;;;;;;;;6203918;23;19923;-90
2023/03/16 01:49:53;;;;;;;;;;;;;;;;;;6174641;23;19935;-90
2023/03/16 01:52:20;;;;;;;;;;;;;;;;;;6180577;23;19931;-90
2023/03/16 01:54:46;;;;;;;;;;;;;;;;;;6203565;23;20225;-90
2023/03/16 01:57:12;;;;;;;;;;;;;;;;;;6206345;23;20348;-89
2023/03/16 01:59:38;;;;;;;;;;;;;;;;;;6202911;23;20098;-90
2023/03/16 02:02:04;;;;;;;;;;;;;;;;;;6205529;23;19920;-90
2023/03/16 02:04:30;;;;;;;;;;;;;;;;;;6204239;23;20428;-90
2023/03/16 02:06:56;;;;;;;;;;;;;;;;;;6203040;23;20843;-89
2023/03/16 02:09:22;;;;;;;;;;;;;;;;;;6204258;23;20363;-90
2023/03/16 02:11:48;;;;;;;;;;;;;;;;;;6202057;23;19916;-90
2023/03/16 02:14:14;;;;;;;;;;;;;;;;;;6178469;23;20385;-90
2023/03/16 02:16:40;;;;;;;;;;;;;;;;;;6176668;23;20326;-90
2023/03/16 02:19:06;;;;;;;;;;;;;;;;;;6204481;23;19916;-90
2023/03/16 02:21:32;;;;;;;;;;;;;;;;;;6178038;23;19920;-90
2023/03/16 02:23:58;;;;;;;;;;;;;;;;;;6176017;23;19923;-90
2023/03/16 02:26:24;;;;;;;;;;;;;;;;;;6204728;23;19926;-90
2023/03/16 02:28:50;;;;;;;;;;;;;;;;;;6175339;23;19920;-90
2023/03/16 02:31:16;;;;;;;;;;;;;;;;;;6179853;23;19920;-90
2023/03/16 02:33:42;;;;;;;;;;;;;;;;;;6177030;23;20345;-91
2023/03/16 02:36:08;;;;;;;;;;;;;;;;;;6178038;23;19938;-90
2023/03/16 02:38:34;;;;;;;;;;;;;;;;;;6177633;23;19919;-90
2023/03/16 02:41:00;;;;;;;;;;;;;;;;;;6176777;23;19994;-90
2023/03/16 02:43:26;;;;;;;;;;;;;;;;;;6178496;23;20058;-90
2023/03/16 02:45:52;;;;;;;;;;;;;;;;;;6177722;23;19963;-90
2023/03/16 02:48:18;;;;;;;;;;;;;;;;;;6202617;23;20363;-90
2023/03/16 02:50:45;;;;;;;;;;;;;;;;;;6201054;23;19924;-90
2023/03/16 02:53:11;;;;;;;;;;;;;;;;;;6204307;23;20289;-90
2023/03/16 02:55:37;;;;;;;;;;;;;;;;;;6200947;23;19966;-90
2023/03/16 02:58:03;;;;;;;;;;;;;;;;;;6202301;23;19930;-90
2023/03/16 03:00:29;;;;;;;;;;;;;;;;;;6179327;23;19951;-89
2023/03/16 03:02:55;;;;;;;;;;;;;;;;;;6201736;23;19923;-90
2023/03/16 03:05:21;;;;;;;;;;;;;;;;;;6178758;23;19924;-90
2023/03/16 03:07:47;;;;;;;;;;;;;;;;;;6174846;23;20341;-90
2023/03/16 03:10:13;;;;;;;;;;;;;;;;;;6203633;23;20362;-90
2023/03/16 03:12:39;;;;;;;;;;;;;;;;;;6179710;23;19943;-90
2023/03/16 03:15:05;;;;;;;;;;;;;;;;;;6178940;23;19920;-90
2023/03/16 03:17:31;;;;;;;;;;;;;;;;;;6178691;23;19916;-91
2023/03/16 03:19:57;;;;;;;;;;;;;;;;;;6178503;23;19958;-90
2023/03/16 03:22:23;;;;;;;;;;;;;;;;;;6205066;23;19923;-90
2023/03/16 03:24:50;;;;;;;;;;;;;;;;;;6178579;23;19970;-91
2023/03/16 03:27:16;;;;;;;;;;;;;;;;;;6181784;23;19991;-90
2023/03/16 03:29:43;;;;;;;;;;;;;;;;;;6176585;23;20002;-90
2023/03/16 03:32:09;;;;;;;;;;;;;;;;;;6180394;23;19920;-90
2023/03/16 03:34:38;;;;;;;;;;;;;;;;;;6179256;23;19924;-90
2023/03/16 03:37:04;;;;;;;;;;;;;;;;;;6206724;23;19920;-91
2023/03/16 03:39:30;;;;;;;;;;;;;;;;;;6181858;23;19920;-91
2023/03/16 03:41:56;;;;;;;;;;;;;;;;;;6179141;23;20383;-90
2023/03/16 03:44:22;;;;;;;;;;;;;;;;;;6204686;23;19938;-90
2023/03/16 03:46:48;;;;;;;;;;;;;;;;;;6179123;23;19920;-90
2023/03/16 03:49:14;;;;;;;;;;;;;;;;;;6205122;23;19920;-90
2023/03/16 03:51:40;;;;;;;;;;;;;;;;;;6176983;23;19970;-90
2023/03/16 03:54:06;;;;;;;;;;;;;;;;;;6205408;23;20329;-90
2023/03/16 03:56:32;;;;;;;;;;;;;;;;;;6205377;23;19928;-90
2023/03/16 03:58:58;;;;;;;;;;;;;;;;;;6203126;23;19916;-90
2023/03/16 04:01:23;;;;;;;;;;;;;;;;;;6179439;23;19951;-90
2023/03/16 04:03:49;;;;;;;;;;;;;;;;;;6202362;23;19922;-90
2023/03/16 04:06:15;;;;;;;;;;;;;;;;;;6202866;23;19955;-90
2023/03/16 04:08:41;;;;;;;;;;;;;;;;;;6174280;23;20354;-90
2023/03/16 04:11:07;;;;;;;;;;;;;;;;;;6178069;23;19969;-90
2023/03/16 04:13:33;;;;;;;;;;;;;;;;;;6177856;23;19930;-90
2023/03/16 04:16:01;;;;;;;;;;;;;;;;;;6177530;23;19920;-90
2023/03/16 04:18:27;;;;;;;;;;;;;;;;;;6178841;23;19916;-89
2023/03/16 04:20:53;;;;;;;;;;;;;;;;;;6176630;23;19927;-90
2023/03/16 04:23:19;;;;;;;;;;;;;;;;;;6177314;23;19926;-90
2023/03/16 04:25:45;;;;;;;;;;;;;;;;;;6176531;23;20233;-90
2023/03/16 04:28:11;;;;;;;;;;;;;;;;;;6203983;23;20356;-90
2023/03/16 04:30:37;;;;;;;;;;;;;;;;;;6202205;23;19915;-91
2023/03/16 04:33:03;;;;;;;;;;;;;;;;;;6202684;23;19947;-90
2023/03/16 04:35:29;;;;;;;;;;;;;;;;;;6204285;23;20252;-90
2023/03/16 04:37:55;;;;;;;;;;;;;;;;;;6202461;23;20291;-90
2023/03/16 04:40:21;;;;;;;;;;;;;;;;;;6204066;23;19920;-90
2023/03/16 04:42:46;;;;;;;;;;;;;;;;;;6202861;23;19944;-90
2023/03/16 04:45:13;;;;;;;;;;;;;;;;;;6182201;23;19926;-90
2023/03/16 04:47:39;;;;;;;;;;;;;;;;;;6179232;23;19927;-90
2023/03/16 04:50:05;;;;;;;;;;;;;;;;;;6204632;23;19920;-90
2023/03/16 04:52:30;;;;;;;;;;;;;;;;;;6203834;23;19982;-91
2023/03/16 04:54:56;;;;;;;;;;;;;;;;;;6175480;23;19991;-90
2023/03/16 04:57:22;;;;;;;;;;;;;;;;;;6180135;23;19924;-90
2023/03/16 04:59:48;;;;;;;;;;;;;;;;;;6176561;23;19916;-90
2023/03/16 05:02:16;;;;;;;;;;;;;;;;;;6202623;23;20399;-90
2023/03/16 05:04:42;;;;;;;;;;;;;;;;;;6202119;23;19930;-90
2023/03/16 05:07:08;;;;;;;;;;;;;;;;;;6179401;23;19924;-90
2023/03/16 05:09:34;;;;;;;;;;;;;;;;;;6179206;23;19923;-90
2023/03/16 05:12:00;;;;;;;;;;;;;;;;;;6176574;23;19947;-90
2023/03/16 05:14:26;;;;;;;;;;;;;;;;;;6178847;23;19924;-90
2023/03/16 05:16:52;;;;;;;;;;;;;;;;;;6177620;23;20359;-90
2023/03/16 05:19:17;;;;;;;;;;;;;;;;;;6180174;23;19927;-90
2023/03/16 05:21:44;;;;;;;;;;;;;;;;;;6201511;23;19986;-90
2023/03/16 05:24:11;;;;;;;;;;;;;;;;;;6204375;23;19923;-90
2023/03/16 05:26:37;;;;;;;;;;;;;;;;;;6202644;23;19919;-90
2023/03/16 05:29:03;;;;;;;;;;;;;;;;;;6176682;23;19970;-89
2023/03/16 05:31:31;;;;;;;;;;;;;;;;;;6202407;23;19916;-90
2023/03/16 05:33:57;;;;;;;;;;;;;;;;;;6176870;23;19924;-90
2023/03/16 05:36:23;;;;;;;;;;;;;;;;;;6178275;23;19942;-90
2023/03/16 05:38:49;;;;;;;;;;;;;;;;;;6202864;23;20359;-90
2023/03/16 05:41:17;;;;;;;;;;;;;;;;;;6203167;23;19924;-90
2023/03/16 05:43:43;;;;;;;;;;;;;;;;;;6201759;23;19916;-90
2023/03/16 05:46:09;;;;;;;;;;;;;;;;;;6178719;23;19947;-90
2023/03/16 05:48:34;;;;;;;;;;;;;;;;;;6179012;23;20336;-90
2023/03/16 05:51:04;;;;;;;;;;;;;;;;;;6200352;23;20240;-90
2023/03/16 05:53:30;;;;;;;;;;;;;;;;;;6200087;23;20232;-90
2023/03/16 05:55:56;;;;;;;;;;;;;;;;;;6174867;23;20377;-91
2023/03/16 05:58:22;;;;;;;;;;;;;;;;;;6203075;23;19928;-91
2023/03/16 06:00:49;;;;;;;;;;;;;;;;;;6175125;23;19958;-90
2023/03/16 06:03:15;;;;;;;;;;;;;;;;;;6204686;23;19920;-91
2023/03/16 06:05:41;;;;;;;;;;;;;;;;;;6174582;23;19926;-89
2023/03/16 06:08:08;;;;;;;;;;;;;;;;;;6204048;23;19920;-90
2023/03/16 06:10:34;;;;;;;;;;;;;;;;;;6177303;23;19951;-90
2023/03/16 06:13:00;;;;;;;;;;;;;;;;;;6201112;23;19924;-89
2023/03/16 06:15:28;;;;;;;;;;;;;;;;;;6203517;23;19979;-90
2023/03/16 06:17:54;;;;;;;;;;;;;;;;;;6201562;23;19951;-90
2023/03/16 06:20:20;;;;;;;;;;;;;;;;;;6204715;23;19920;-90
2023/03/16 06:22:46;;;;;;;;;;;;;;;;;;6202137;23;19991;-90
2023/03/16 06:25:12;;;;;;;;;;;;;;;;;;6204482;23;19951;-90
2023/03/16 06:27:39;;;;;;;;;;;;;;;;;;6201852;23;19962;-90
2023/03/16 06:30:05;;;;;;;;;;;;;;;;;;6201917;23;19919;-91
2023/03/16 06:32:31;;;;;;;;;;;;;;;;;;6204150;23;19968;-90
2023/03/16 06:35:00;;;;;;;;;;;;;;;;;;6177053;23;20375;-90
2023/03/16 06:37:26;;;;;;;;;;;;;;;;;;6205474;23;19920;-90
2023/03/16 06:39:52;;;;;;;;;;;;;;;;;;6202718;23;19923;-90
2023/03/16 06:42:19;;;;;;;;;;;;;;;;;;6204818;23;20307;-90
2023/03/16 06:44:45;;;;;;;;;;;;;;;;;;6201899;23;19935;-90
2023/03/16 06:47:11;;;;;;;;;;;;;;;;;;6202636;23;19990;-90
2023/03/16 06:49:36;;;;;;;;;;;;;;;;;;6202285;23;19927;-90
2023/03/16 06:52:02;;;;;;;;;;;;;;;;;;6205451;23;19920;-90
2023/03/16 06:54:31;;;;;;;;;;;;;;;;;;6181139;23;20293;-90
2023/03/16 06:56:57;;;;;;;;;;;;;;;;;;6204525;23;19963;-90
2023/03/16 06:59:23;;;;;;;;;;;;;;;;;;6181701;23;19927;-90
2023/03/16 07:01:49;;;;;;;;;;;;;;;;;;6179548;23;19919;-90
2023/03/16 07:04:15;;;;;;;;;;;;;;;;;;6206009;23;19927;-89
2023/03/16 07:06:41;;;;;;;;;;;;;;;;;;6204815;23;19920;-90
2023/03/16 07:09:07;;;;;;;;;;;;;;;;;;6207039;23;20287;-90
2023/03/16 07:11:33;;;;;;;;;;;;;;;;;;6182066;23;19930;-90
2023/03/16 07:14:00;;;;;;;;;;;;;;;;;;6203572;23;20257;-89
2023/03/16 07:16:26;;;;;;;;;;;;;;;;;;6205299;23;19915;-89
2023/03/16 07:18:52;;;;;;;;;;;;;;;;;;6181065;23;20007;-89
2023/03/16 07:21:18;;;;;;;;;;;;;;;;;;6182163;23;19915;-89
2023/03/16 07:23:44;;;;;;;;;;;;;;;;;;6180030;23;19919;-90
2023/03/16 07:26:10;;;;;;;;;;;;;;;;;;6207429;23;19962;-89
2023/03/16 07:28:36;;;;;;;;;;;;;;;;;;6205063;23;20226;-89
2023/03/16 07:31:03;;;;;;;;;;;;;;;;;;6179755;23;19962;-90
2023/03/16 07:33:29;;;;;;;;;;;;;;;;;;6205489;23;20245;-89
2023/03/16 07:35:55;;;;;;;;;;;;;;;;;;6176999;23;20296;-90
2023/03/16 07:38:21;;;;;;;;;;;;;;;;;;6182490;23;19993;-89
2023/03/16 07:40:47;;;;;;;;;;;;;;;;;;6201264;23;20022;-89
2023/03/16 07:43:13;;;;;;;;;;;;;;;;;;6209069;23;20344;-89
2023/03/16 07:45:39;;;;;;;;;;;;;;;;;;6179406;23;20222;-89
2023/03/16 07:48:05;;;;;;;;;;;;;;;;;;6178927;23;19923;-89
2023/03/16 07:50:31;;;;;;;;;;;;;;;;;;6205059;23;20341;-90
2023/03/16 07:52:57;;;;;;;;;;;;;;;;;;6179572;23;19924;-86
2023/03/16 07:55:23;;;;;;;;;;;;;;;;;;6207509;23;19920;-86
2023/03/16 07:57:48;;;;;;;;;;;;;;;;;;6204965;23;20371;-86
2023/03/16 08:00:14;;;;;;;;;;;;;;;;;;6207706;23;19924;-86
2023/03/16 08:02:40;;;;;;;;;;;;;;;;;;6180446;23;19919;-86
2023/03/16 08:05:09;;;;;;;;;;;;;;;;;;6180162;23;19955;-86
2023/03/16 08:07:35;;;;;;;;;;;;;;;;;;6207462;23;20388;-86
2023/03/16 08:10:04;;;;;;;;;;;;;;;;;;6206787;23;19991;-86
2023/03/16 08:12:30;;;;;;;;;;;;;;;;;;6181178;23;19964;-86
2023/03/16 08:14:56;;;;;;;;;;;;;;;;;;6178312;23;20359;-86
2023/03/16 08:17:22;;;;;;;;;;;;;;;;;;6206935;23;19916;-86
2023/03/16 08:19:48;;;;;;;;;;;;;;;;;;6177366;23;19920;-86
2023/03/16 08:22:14;;;;;;;;;;;;;;;;;;6204915;23;20229;-86
2023/03/16 08:24:41;;;;;;;;;;;;;;;;;;6178246;23;19916;-86
2023/03/16 08:27:07;;;;;;;;;;;;;;;;;;6182105;23;19920;-86
2023/03/16 08:29:33;;;;;;;;;;;;;;;;;;6181471;23;20256;-86
2023/03/16 08:31:59;;;;;;;;;;;;;;;;;;6203524;23;20297;-86
2023/03/16 08:34:25;;;;;;;;;;;;;;;;;;6207325;23;20296;-87
2023/03/16 08:36:51;;;;;;;;;;;;;;;;;;6204100;23;19931;-86
2023/03/16 08:39:17;;;;;;;;;;;;;;;;;;6181298;23;19929;-86
2023/03/16 08:41:44;;;;;;;;;;;;;;;;;;6178835;23;19965;-87
2023/03/16 08:44:11;;;;;;;;;;;;;;;;;;6182051;23;19927;-86
2023/03/16 08:46:38;;;;;;;;;;;;;;;;;;6203148;23;19919;-86
2023/03/16 08:49:04;;;;;;;;;;;;;;;;;;6180846;23;19927;-86
2023/03/16 08:51:30;;;;;;;;;;;;;;;;;;6180249;23;19920;-87
2023/03/16 08:53:55;;;;;;;;;;;;;;;;;;6204726;23;20082;-86
2023/03/16 08:56:21;;;;;;;;;;;;;;;;;;6205982;23;19920;-87
2023/03/16 08:58:47;;;;;;;;;;;;;;;;;;6204218;23;19931;-86
2023/03/16 09:01:14;;;;;;;;;;;;;;;;;;6205550;23;19919;-87
2023/03/16 09:03:40;;;;;;;;;;;;;;;;;;6178917;23;19927;-86
2023/03/16 09:06:06;;;;;;;;;;;;;;;;;;6205847;23;19927;-87
2023/03/16 09:08:32;;;;;;;;;;;;;;;;;;6179553;23;19920;-87
2023/03/16 09:10:59;;;;;;;;;;;;;;;;;;6200541;23;19942;-87
2023/03/16 09:13:25;;;;;;;;;;;;;;;;;;6179141;23;19923;-87
2023/03/16 09:15:51;;;;;;;;;;;;;;;;;;6174184;23;19958;-88
2023/03/16 09:18:18;;;;;;;;;;;;;;;;;;6202300;23;20326;-88
2023/03/16 09:20:47;;;;;;;;;;;;;;;;;;6199378;23;19927;-88
2023/03/16 09:23:13;;;;;;;;;;;;;;;;;;6178767;23;19955;-88
2023/03/16 09:25:39;;;;;;;;;;;;;;;;;;6175658;23;19920;-88
2023/03/16 09:28:05;;;;;;;;;;;;;;;;;;6178327;23;19916;-88
2023/03/16 09:30:31;;;;;;;;;;;;;;;;;;6175090;23;20325;-89
2023/03/16 09:32:57;;;;;;;;;;;;;;;;;;6177820;23;20334;-87
2023/03/16 09:35:24;;;;;;;;;;;;;;;;;;6180828;23;20244;-88
2023/03/16 09:37:51;;;;;;;;;;;;;;;;;;6203523;23;20332;-89
2023/03/16 09:40:17;;;;;;;;;;;;;;;;;;6179754;23;19926;-89
2023/03/16 09:42:43;;;;;;;;;;;;;;;;;;6203501;23;19995;-88
2023/03/16 09:45:09;;;;;;;;;;;;;;;;;;6206937;23;20277;-88
2023/03/16 09:47:39;;;;;;;;;;;;;;;;;;6181429;23;19927;-89
2023/03/16 09:50:05;;;;;;;;;;;;;;;;;;6181097;23;19924;-88
2023/03/16 09:52:32;;;;;;;;;;;;;;;;;;6182216;23;19943;-89
2023/03/16 09:54:58;;;;;;;;;;;;;;;;;;6203696;23;19919;-89
2023/03/16 09:57:24;;;;;;;;;;;;;;;;;;6181988;23;19924;-88
2023/03/16 09:59:51;;;;;;;;;;;;;;;;;;6203614;23;20348;-88
2023/03/16 10:02:17;;;;;;;;;;;;;;;;;;6181880;23;19924;-88
2023/03/16 10:04:44;;;;;;;;;;;;;;;;;;6179107;23;20271;-88
2023/03/16 10:07:11;;;;;;;;;;;;;;;;;;6206724;23;20373;-88
2023/03/16 10:09:37;;;;;;;;;;;;;;;;;;6175993;23;20395;-89
2023/03/16 10:12:03;;;;;;;;;;;;;;;;;;6205862;23;19966;-88
2023/03/16 10:14:29;;;;;;;;;;;;;;;;;;6180773;23;19928;-88
2023/03/16 10:16:55;;;;;;;;;;;;;;;;;;6201987;23;19930;-88
2023/03/16 10:19:22;;;;;;;;;;;;;;;;;;6206163;23;19920;-88
2023/03/16 10:21:48;;;;;;;;;;;;;;;;;;6203698;23;19919;-88
2023/03/16 10:24:14;;;;;;;;;;;;;;;;;;6206458;23;20277;-88
2023/03/16 10:26:40;;;;;;;;;;;;;;;;;;6203961;23;19916;-88
2023/03/16 10:29:06;;;;;;;;;;;;;;;;;;6205395;23;19983;-88
2023/03/16 10:31:32;;;;;;;;;;;;;;;;;;6204726;23;19950;-87
2023/03/16 10:34:12;;;;;;;;;;;;;;;;;;6201459;23;19920;-87
2023/03/16 10:36:59;;;;;;;;;;;;;;;;;;6154202;23;20169;-87
2023/03/16 10:46:06;;;;;;;;;;;;;;;;;;6119379;23;19917;-87
2023/03/16 10:55:25;;;;;;;;;;;;;;;;;;;;;
2023/03/16 11:01:13;;;;;;;;;;;;;;;;;;6030687;23;19956;-87
2023/03/16 11:03:40;;;;;;;;;;;;;;;;;;6077806;23;19921;-87
2023/03/16 11:06:06;;;;;;;;;;;;;;;;;;6150610;23;19920;-87
2023/03/16 11:08:32;;;;;;;;;;;;;;;;;;6150629;23;19924;-87
2023/03/16 11:10:58;;;;;;;;;;;;;;;;;;6149281;23;19920;-87
2023/03/16 11:13:25;;;;;;;;;;;;;;;;;;6152196;23;20310;-87
2023/03/16 11:15:50;;;;;;;;;;;;;;;;;;6123360;23;19963;-86
2023/03/16 11:18:16;;;;;;;;;;;;;;;;;;6147024;23;19920;-86
2023/03/16 11:20:42;;;;;;;;;;;;;;;;;;6147515;23;20352;-86
2023/03/16 11:23:08;;;;;;;;;;;;;;;;;;6150552;23;19924;-86
2023/03/16 11:25:35;;;;;;;;;;;;;;;;;;6149996;23;20364;-86
2023/03/16 11:28:02;;;;;;;;;;;;;;;;;;6124920;23;19924;-86
2023/03/16 11:30:29;;;;;;;;;;;;;;;;;;6126745;23;19991;-86
2023/03/16 11:32:55;;;;;;;;;;;;;;;;;;6146300;23;20233;-87
2023/03/16 11:35:21;;;;;;;;;;;;;;;;;;6127603;23;19924;-87
2023/03/16 11:37:47;;;;;;;;;;;;;;;;;;6148161;23;19921;-87
2023/03/16 11:40:14;;;;;;;;;;;;;;;;;;6178087;23;19974;-86
2023/03/16 11:42:40;;;;;;;;;;;;;;;;;;6148823;23;20276;-87
2023/03/16 11:45:06;;;;;;;;;;;;;;;;;;6125324;23;19994;-86
2023/03/16 11:47:32;;;;;;;;;;;;;;;;;;6149403;23;20234;-87
2023/03/16 11:49:58;;;;;;;;;;;;;;;;;;6123519;23;19924;-86
2023/03/16 11:52:25;;;;;;;;;;;;;;;;;;6148837;23;19921;-86
2023/03/16 11:54:51;;;;;;;;;;;;;;;;;;6122166;23;20341;-86
2023/03/16 11:57:17;;;;;;;;;;;;;;;;;;6139129;23;20428;-86
2023/03/16 11:59:43;;;;;;;;;;;;;;;;;;6166329;23;19920;-86
2023/03/16 12:02:09;;;;;;;;;;;;;;;;;;6203240;23;19924;-86
2023/03/16 12:04:36;;;;;;;;;;;;;;;;;;6204410;23;20189;-86
2023/03/16 12:07:02;;;;;;;;;;;;;;;;;;6179278;23;19924;-86
2023/03/16 12:09:29;;;;;;;;;;;;;;;;;;6178591;23;20432;-86
2023/03/16 12:11:55;;;;;;;;;;;;;;;;;;6201502;23;19920;-86
2023/03/16 12:14:21;;;;;;;;;;;;;;;;;;6200876;23;19935;-86
2023/03/16 12:16:48;;;;;;;;;;;;;;;;;;6175972;23;19978;-86
2023/03/16 12:19:14;;;;;;;;;;;;;;;;;;6204084;23;20383;-86
2023/03/16 12:21:41;;;;;;;;;;;;;;;;;;6200340;23;19920;-86
2023/03/16 12:24:06;;;;;;;;;;;;;;;;;;6179213;23;20432;-87
2023/03/16 12:26:33;;;;;;;;;;;;;;;;;;6203656;23;20114;-86
2023/03/16 12:29:00;;;;;;;;;;;;;;;;;;6172836;23;20047;-86
2023/03/16 12:31:26;;;;;;;;;;;;;;;;;;6178132;23;19927;-86
2023/03/16 12:33:51;;;;;;;;;;;;;;;;;;6201319;23;19919;-86
2023/03/16 12:36:17;;;;;;;;;;;;;;;;;;6203802;23;19924;-86
2023/03/16 12:38:43;;;;;;;;;;;;;;;;;;6174206;23;19923;-86
2023/03/16 12:41:09;;;;;;;;;;;;;;;;;;6177464;23;19920;-86
2023/03/16 12:43:36;;;;;;;;;;;;;;;;;;6201743;23;20450;-84
2023/03/16 12:46:03;;;;;;;;;;;;;;;;;;6177605;23;19928;-84
2023/03/16 12:48:29;;;;;;;;;;;;;;;;;;6177717;23;19922;-84
2023/03/16 12:50:55;;;;;;;;;;;;;;;;;;6175692;23;19920;-84
2023/03/16 12:53:21;;;;;;;;;;;;;;;;;;6178808;23;19924;-84
2023/03/16 12:55:47;;;;;;;;;;;;;;;;;;6201969;23;19931;-84
2023/03/16 12:58:13;;;;;;;;;;;;;;;;;;6202690;23;19915;-84
2023/03/16 13:00:39;;;;;;;;;;;;;;;;;;6198628;23;19997;-84
2023/03/16 13:03:06;;;;;;;;;;;;;;;;;;6204940;23;19931;-84
2023/03/16 13:05:33;;;;;;;;;;;;;;;;;;6203093;23;20195;-84
2023/03/16 13:08:00;;;;;;;;;;;;;;;;;;6200102;23;19916;-84
2023/03/16 13:10:26;;;;;;;;;;;;;;;;;;6202217;23;20314;-84
2023/03/16 13:12:51;;;;;;;;;;;;;;;;;;6200925;23;19959;-84
2023/03/16 13:15:18;;;;;;;;;;;;;;;;;;6202476;23;19916;-83
2023/03/16 13:17:44;;;;;;;;;;;;;;;;;;6201372;23;19926;-84
2023/03/16 13:20:10;;;;;;;;;;;;;;;;;;6203837;23;20394;-84
2023/03/16 13:22:37;;;;;;;;;;;;;;;;;;6204570;23;19958;-84
2023/03/16 13:25:03;;;;;;;;;;;;;;;;;;6202302;23;19974;-84
2023/03/16 13:27:29;;;;;;;;;;;;;;;;;;6205108;23;19974;-84
2023/03/16 13:29:55;;;;;;;;;;;;;;;;;;6202868;23;19923;-84
2023/03/16 13:32:21;;;;;;;;;;;;;;;;;;6204341;23;19993;-83
2023/03/16 13:34:48;;;;;;;;;;;;;;;;;;6176704;23;19951;-84
2023/03/16 13:37:14;;;;;;;;;;;;;;;;;;6201744;23;19916;-84
2023/03/16 13:39:40;;;;;;;;;;;;;;;;;;6200968;23;19916;-83
2023/03/16 13:42:06;;;;;;;;;;;;;;;;;;6202290;23;19920;-84
2023/03/16 13:44:32;;;;;;;;;;;;;;;;;;6203108;23;19924;-84
2023/03/16 13:46:58;;;;;;;;;;;;;;;;;;6176521;23;20340;-84
2023/03/16 13:49:24;;;;;;;;;;;;;;;;;;6200585;23;19915;-84
2023/03/16 13:51:51;;;;;;;;;;;;;;;;;;6175891;23;19916;-84
2023/03/16 13:54:17;;;;;;;;;;;;;;;;;;6202214;23;19924;-84
2023/03/16 13:56:43;;;;;;;;;;;;;;;;;;6174661;23;19966;-84
2023/03/16 13:59:10;;;;;;;;;;;;;;;;;;6202151;23;19928;-84
2023/03/16 14:01:36;;;;;;;;;;;;;;;;;;6174727;23;19924;-83
2023/03/16 14:04:07;;;;;;;;;;;;;;;;;;6202556;23;19978;-84
2023/03/16 14:06:34;;;;;;;;;;;;;;;;;;6201246;23;19916;-84
2023/03/16 14:09:00;;;;;;;;;;;;;;;;;;6176299;23;19920;-84
2023/03/16 14:11:26;;;;;;;;;;;;;;;;;;6201128;23;20251;-84
2023/03/16 14:13:53;;;;;;;;;;;;;;;;;;6176075;23;19931;-83
2023/03/16 14:16:19;;;;;;;;;;;;;;;;;;6200468;23;20272;-84
2023/03/16 14:18:46;;;;;;;;;;;;;;;;;;6175573;23;19939;-84
2023/03/16 14:21:12;;;;;;;;;;;;;;;;;;6174729;23;19920;-84
2023/03/16 14:23:38;;;;;;;;;;;;;;;;;;6174814;23;20265;-83
2023/03/16 14:26:04;;;;;;;;;;;;;;;;;;6202553;23;19919;-83
2023/03/16 14:28:30;;;;;;;;;;;;;;;;;;6177895;23;19946;-83
2023/03/16 14:30:56;;;;;;;;;;;;;;;;;;6201936;23;20895;-83
2023/03/16 14:33:23;;;;;;;;;;;;;;;;;;6177705;23;19931;-83
2023/03/16 14:35:50;;;;;;;;;;;;;;;;;;6200962;23;19923;-84
2023/03/16 14:38:16;;;;;;;;;;;;;;;;;;6201590;23;19920;-83
2023/03/16 14:40:42;;;;;;;;;;;;;;;;;;6198627;23;19920;-84
2023/03/16 14:43:08;;;;;;;;;;;;;;;;;;6202842;23;19927;-83
2023/03/16 14:45:34;;;;;;;;;;;;;;;;;;6176653;23;20340;-83
2023/03/16 14:48:00;;;;;;;;;;;;;;;;;;6174324;23;19916;-83
2023/03/16 14:50:27;;;;;;;;;;;;;;;;;;6178262;23;19920;-83
2023/03/16 14:52:53;;;;;;;;;;;;;;;;;;6175537;23;19919;-83
2023/03/16 14:55:19;;;;;;;;;;;;;;;;;;6202679;23;19999;-83
2023/03/16 14:57:45;;;;;;;;;;;;;;;;;;6199368;23;20244;-84
2023/03/16 15:00:11;;;;;;;;;;;;;;;;;;6201705;23;20341;-83
2023/03/16 15:02:37;;;;;;;;;;;;;;;;;;6198696;23;19916;-84
2023/03/16 15:05:03;;;;;;;;;;;;;;;;;;6200885;23;19915;-83
2023/03/16 15:07:29;;;;;;;;;;;;;;;;;;6199479;23;19920;-83
2023/03/16 15:09:55;;;;;;;;;;;;;;;;;;6199562;23;19920;-84
2023/03/16 15:12:23;;;;;;;;;;;;;;;;;;6202235;23;19924;-83
2023/03/16 15:17:34;;;;;;;;;;;;;;;;;;6204579;23;19920;-83
2023/03/16 15:20:00;;;;;;;;;;;;;;;;;;6200946;23;20215;-83
2023/03/16 15:22:26;;;;;;;;;;;;;;;;;;6204514;23;19916;-83
2023/03/16 15:24:52;;;;;;;;;;;;;;;;;;6175994;23;20241;-83
2023/03/16 15:27:18;;;;;;;;;;;;;;;;;;6203303;23;19920;-83
2023/03/16 15:29:44;;;;;;;;;;;;;;;;;;6173597;23;19920;-83
2023/03/16 15:32:10;;;;;;;;;;;;;;;;;;6176991;23;20001;-83
2023/03/16 15:34:38;;;;;;;;;;;;;;;;;;6199434;23;19963;-83
2023/03/16 15:37:04;;;;;;;;;;;;;;;;;;6177531;23;19947;-83
2023/03/16 15:39:30;;;;;;;;;;;;;;;;;;6204071;23;19951;-83
2023/03/16 15:41:56;;;;;;;;;;;;;;;;;;6199940;23;20323;-83
2023/03/16 15:44:22;;;;;;;;;;;;;;;;;;6204702;23;19923;-83
2023/03/16 15:46:48;;;;;;;;;;;;;;;;;;6198900;23;19986;-83
2023/03/16 15:49:14;;;;;;;;;;;;;;;;;;6203605;23;19990;-83
2023/03/16 15:51:40;;;;;;;;;;;;;;;;;;6199046;23;19923;-83
2023/03/16 15:54:07;;;;;;;;;;;;;;;;;;6178397;23;19924;-83
2023/03/16 15:56:33;;;;;;;;;;;;;;;;;;6202961;23;19915;-83
2023/03/16 15:58:59;;;;;;;;;;;;;;;;;;6194741;23;19919;-83
2023/03/16 16:01:25;;;;;;;;;;;;;;;;;;6176317;23;20390;-82
2023/03/16 16:03:52;;;;;;;;;;;;;;;;;;6175511;23;19924;-82
2023/03/16 16:06:18;;;;;;;;;;;;;;;;;;6201976;23;19919;-83
2023/03/16 16:08:44;;;;;;;;;;;;;;;;;;6199543;23;19927;-83
2023/03/16 16:11:10;;;;;;;;;;;;;;;;;;6176316;23;19983;-83
2023/03/16 16:13:36;;;;;;;;;;;;;;;;;;6174623;23;19923;-83
2023/03/16 16:16:02;;;;;;;;;;;;;;;;;;6175910;23;20355;-83
2023/03/16 16:18:29;;;;;;;;;;;;;;;;;;6204546;23;19920;-82
2023/03/16 16:20:55;;;;;;;;;;;;;;;;;;6199149;23;19981;-83
2023/03/16 16:23:21;;;;;;;;;;;;;;;;;;6203633;23;19928;-83
2023/03/16 16:25:48;;;;;;;;;;;;;;;;;;6173575;23;19920;-83
2023/03/16 16:28:14;;;;;;;;;;;;;;;;;;6200359;23;19969;-83
2023/03/16 16:30:40;;;;;;;;;;;;;;;;;;6173225;23;19926;-83
2023/03/16 16:33:07;;;;;;;;;;;;;;;;;;6202327;23;20187;-83
2023/03/16 16:35:34;;;;;;;;;;;;;;;;;;6201328;23;19916;-83
2023/03/16 16:37:59;;;;;;;;;;;;;;;;;;6142003;23;19920;-83
2023/03/16 16:40:25;;;;;;;;;;;;;;;;;;6145062;23;19923;-82
2023/03/16 16:42:51;;;;;;;;;;;;;;;;;;6141733;23;19987;-84
2023/03/16 16:45:17;;;;;;;;;;;;;;;;;;6119016;23;19920;-83
2023/03/16 16:47:43;;;;;;;;;;;;;;;;;;6168757;23;20365;-83
2023/03/16 16:50:11;;;;;;;;;;;;;;;;;;6147156;23;19990;-83
2023/03/16 16:52:37;;;;;;;;;;;;;;;;;;6120250;23;19970;-83
2023/03/16 16:55:03;;;;;;;;;;;;;;;;;;6146523;23;19920;-83
2023/03/16 16:57:30;;;;;;;;;;;;;;;;;;6144066;23;19931;-83